sensor_id;sensor_type;location;lat;lon;timestamp;P1;durP1;ratioP1;P2;durP2;ratioP2
52031;SDS011;38044;45.148;39.604;2024-03-02T00:00:11;26.60;;;15.88;;
52031;SDS011;38044;45.148;39.604;2024-03-02T00:05:14;27.77;;;16.65;;
52031;SDS011;38044;45.148;39.604;2024-03-02T00:07:42;27.10;;;14.82;;
52031;SDS011;38044;45.148;39.604;2024-03-02T00:10:10;28.75;;;17.30;;
52031;SDS011;38044;45.148;39.604;2024-03-02T00:12:37;28.67;;;14.88;;
52031;SDS011;38044;45.148;39.604;2024-03-02T00:15:18;29.35;;;16.00;;
52031;SDS011;38044;45.148;39.604;2024-03-02T00:20:38;25.90;;;14.75;;
52031;SDS011;38044;45.148;39.604;2024-03-02T00:23:05;27.70;;;14.32;;
52031;SDS011;38044;45.148;39.604;2024-03-02T00:25:44;26.55;;;15.00;;
52031;SDS011;38044;45.148;39.604;2024-03-02T00:28:25;23.48;;;14.73;;
52031;SDS011;38044;45.148;39.604;2024-03-02T00:31:02;26.55;;;14.40;;
52031;SDS011;38044;45.148;39.604;2024-03-02T00:35:59;23.63;;;15.48;;
52031;SDS011;38044;45.148;39.604;2024-03-02T00:38:27;23.20;;;13.65;;
52031;SDS011;38044;45.148;39.604;2024-03-02T00:40:53;25.77;;;14.20;;
52031;SDS011;38044;45.148;39.604;2024-03-02T00:46:17;21.45;;;12.80;;
52031;SDS011;38044;45.148;39.604;2024-03-02T00:48:48;27.13;;;14.05;;
52031;SDS011;38044;45.148;39.604;2024-03-02T00:51:18;23.02;;;13.32;;
52031;SDS011;38044;45.148;39.604;2024-03-02T00:53:44;22.73;;;14.75;;
52031;SDS011;38044;45.148;39.604;2024-03-02T00:56:10;25.02;;;14.45;;
52031;SDS011;38044;45.148;39.604;2024-03-02T00:58:39;26.88;;;14.85;;
52031;SDS011;38044;45.148;39.604;2024-03-02T01:01:05;25.52;;;14.85;;
52031;SDS011;38044;45.148;39.604;2024-03-02T01:03:33;31.10;;;16.45;;
52031;SDS011;38044;45.148;39.604;2024-03-02T01:05:59;26.55;;;14.27;;
52031;SDS011;38044;45.148;39.604;2024-03-02T01:08:25;26.77;;;14.82;;
52031;SDS011;38044;45.148;39.604;2024-03-02T01:10:51;30.35;;;17.25;;
52031;SDS011;38044;45.148;39.604;2024-03-02T01:13:17;27.27;;;16.92;;
52031;SDS011;38044;45.148;39.604;2024-03-02T01:15:43;28.58;;;16.67;;
52031;SDS011;38044;45.148;39.604;2024-03-02T01:18:09;27.05;;;14.32;;
52031;SDS011;38044;45.148;39.604;2024-03-02T01:20:35;30.45;;;17.23;;
52031;SDS011;38044;45.148;39.604;2024-03-02T01:23:01;31.25;;;17.17;;
52031;SDS011;38044;45.148;39.604;2024-03-02T01:25:28;25.42;;;15.10;;
52031;SDS011;38044;45.148;39.604;2024-03-02T01:27:54;29.02;;;16.60;;
52031;SDS011;38044;45.148;39.604;2024-03-02T01:30:19;26.65;;;16.67;;
52031;SDS011;38044;45.148;39.604;2024-03-02T01:32:46;28.20;;;16.95;;
52031;SDS011;38044;45.148;39.604;2024-03-02T01:35:12;28.65;;;16.33;;
52031;SDS011;38044;45.148;39.604;2024-03-02T01:37:40;29.42;;;16.98;;
52031;SDS011;38044;45.148;39.604;2024-03-02T01:40:06;28.50;;;16.52;;
52031;SDS011;38044;45.148;39.604;2024-03-02T01:42:37;27.15;;;16.90;;
52031;SDS011;38044;45.148;39.604;2024-03-02T01:45:07;27.45;;;14.90;;
52031;SDS011;38044;45.148;39.604;2024-03-02T01:47:34;25.92;;;16.38;;
52031;SDS011;38044;45.148;39.604;2024-03-02T01:50:10;33.20;;;15.75;;
52031;SDS011;38044;45.148;39.604;2024-03-02T01:52:37;28.02;;;14.32;;
52031;SDS011;38044;45.148;39.604;2024-03-02T01:55:03;27.70;;;15.20;;
52031;SDS011;38044;45.148;39.604;2024-03-02T01:57:29;27.85;;;16.77;;
52031;SDS011;38044;45.148;39.604;2024-03-02T01:59:56;27.38;;;14.45;;
52031;SDS011;38044;45.148;39.604;2024-03-02T02:02:22;30.30;;;15.65;;
52031;SDS011;38044;45.148;39.604;2024-03-02T02:04:47;32.50;;;17.35;;
52031;SDS011;38044;45.148;39.604;2024-03-02T02:07:13;32.53;;;14.65;;
52031;SDS011;38044;45.148;39.604;2024-03-02T02:09:42;33.42;;;17.23;;
52031;SDS011;38044;45.148;39.604;2024-03-02T02:12:11;26.08;;;15.77;;
52031;SDS011;38044;45.148;39.604;2024-03-02T02:14:37;30.48;;;15.95;;
52031;SDS011;38044;45.148;39.604;2024-03-02T02:17:05;27.55;;;16.48;;
52031;SDS011;38044;45.148;39.604;2024-03-02T02:19:31;26.65;;;15.02;;
52031;SDS011;38044;45.148;39.604;2024-03-02T02:21:56;27.38;;;14.05;;
52031;SDS011;38044;45.148;39.604;2024-03-02T02:24:22;27.08;;;14.80;;
52031;SDS011;38044;45.148;39.604;2024-03-02T02:26:48;27.48;;;14.55;;
52031;SDS011;38044;45.148;39.604;2024-03-02T02:29:14;29.17;;;14.98;;
52031;SDS011;38044;45.148;39.604;2024-03-02T02:31:40;28.80;;;15.90;;
52031;SDS011;38044;45.148;39.604;2024-03-02T02:34:07;32.88;;;15.15;;
52031;SDS011;38044;45.148;39.604;2024-03-02T02:36:34;29.25;;;16.27;;
52031;SDS011;38044;45.148;39.604;2024-03-02T02:39:03;26.65;;;15.70;;
52031;SDS011;38044;45.148;39.604;2024-03-02T02:41:32;27.85;;;13.63;;
52031;SDS011;38044;45.148;39.604;2024-03-02T02:43:57;28.17;;;15.23;;
52031;SDS011;38044;45.148;39.604;2024-03-02T02:46:23;24.75;;;13.30;;
52031;SDS011;38044;45.148;39.604;2024-03-02T02:48:49;30.70;;;14.20;;
52031;SDS011;38044;45.148;39.604;2024-03-02T02:51:16;30.75;;;15.27;;
52031;SDS011;38044;45.148;39.604;2024-03-02T02:53:42;30.98;;;13.40;;
52031;SDS011;38044;45.148;39.604;2024-03-02T02:56:08;24.23;;;14.88;;
52031;SDS011;38044;45.148;39.604;2024-03-02T02:58:35;24.13;;;12.65;;
52031;SDS011;38044;45.148;39.604;2024-03-02T03:01:01;29.23;;;14.13;;
52031;SDS011;38044;45.148;39.604;2024-03-02T03:03:27;28.30;;;13.70;;
52031;SDS011;38044;45.148;39.604;2024-03-02T03:05:53;27.15;;;13.82;;
52031;SDS011;38044;45.148;39.604;2024-03-02T03:08:18;25.50;;;13.68;;
52031;SDS011;38044;45.148;39.604;2024-03-02T03:10:44;25.20;;;13.65;;
52031;SDS011;38044;45.148;39.604;2024-03-02T03:13:10;30.35;;;14.82;;
52031;SDS011;38044;45.148;39.604;2024-03-02T03:15:36;26.75;;;14.02;;
52031;SDS011;38044;45.148;39.604;2024-03-02T03:18:05;24.92;;;12.60;;
52031;SDS011;38044;45.148;39.604;2024-03-02T03:20:32;28.73;;;14.05;;
52031;SDS011;38044;45.148;39.604;2024-03-02T03:22:59;26.63;;;14.07;;
52031;SDS011;38044;45.148;39.604;2024-03-02T03:25:25;28.92;;;13.88;;
52031;SDS011;38044;45.148;39.604;2024-03-02T03:27:51;21.17;;;12.20;;
52031;SDS011;38044;45.148;39.604;2024-03-02T03:30:18;29.05;;;16.33;;
52031;SDS011;38044;45.148;39.604;2024-03-02T03:32:44;30.63;;;15.55;;
52031;SDS011;38044;45.148;39.604;2024-03-02T03:35:10;29.42;;;15.77;;
52031;SDS011;38044;45.148;39.604;2024-03-02T03:37:37;28.67;;;14.23;;
52031;SDS011;38044;45.148;39.604;2024-03-02T03:40:03;26.55;;;15.63;;
52031;SDS011;38044;45.148;39.604;2024-03-02T03:42:35;24.30;;;12.73;;
52031;SDS011;38044;45.148;39.604;2024-03-02T03:45:02;26.10;;;12.15;;
52031;SDS011;38044;45.148;39.604;2024-03-02T03:47:28;26.63;;;14.27;;
52031;SDS011;38044;45.148;39.604;2024-03-02T03:49:56;27.42;;;14.05;;
52031;SDS011;38044;45.148;39.604;2024-03-02T03:52:22;27.45;;;14.07;;
52031;SDS011;38044;45.148;39.604;2024-03-02T03:54:47;26.83;;;15.20;;
52031;SDS011;38044;45.148;39.604;2024-03-02T03:57:13;24.73;;;13.30;;
52031;SDS011;38044;45.148;39.604;2024-03-02T03:59:39;31.13;;;15.05;;
52031;SDS011;38044;45.148;39.604;2024-03-02T04:02:05;30.38;;;15.65;;
52031;SDS011;38044;45.148;39.604;2024-03-02T04:04:33;23.50;;;13.63;;
52031;SDS011;38044;45.148;39.604;2024-03-02T04:06:59;29.88;;;14.93;;
52031;SDS011;38044;45.148;39.604;2024-03-02T04:09:26;23.85;;;13.43;;
52031;SDS011;38044;45.148;39.604;2024-03-02T04:11:52;29.55;;;15.93;;
52031;SDS011;38044;45.148;39.604;2024-03-02T04:14:19;39.08;;;16.77;;
52031;SDS011;38044;45.148;39.604;2024-03-02T04:16:45;31.80;;;15.38;;
52031;SDS011;38044;45.148;39.604;2024-03-02T04:19:11;28.80;;;15.18;;
52031;SDS011;38044;45.148;39.604;2024-03-02T04:21:37;28.90;;;14.85;;
52031;SDS011;38044;45.148;39.604;2024-03-02T04:24:03;26.52;;;14.25;;
52031;SDS011;38044;45.148;39.604;2024-03-02T04:26:29;25.00;;;14.20;;
52031;SDS011;38044;45.148;39.604;2024-03-02T04:28:55;26.95;;;13.43;;
52031;SDS011;38044;45.148;39.604;2024-03-02T04:31:21;27.23;;;14.27;;
52031;SDS011;38044;45.148;39.604;2024-03-02T04:33:46;23.23;;;13.80;;
52031;SDS011;38044;45.148;39.604;2024-03-02T04:36:12;25.75;;;14.38;;
52031;SDS011;38044;45.148;39.604;2024-03-02T04:38:38;26.02;;;14.32;;
52031;SDS011;38044;45.148;39.604;2024-03-02T04:41:04;24.67;;;13.07;;
52031;SDS011;38044;45.148;39.604;2024-03-02T04:43:33;24.77;;;14.20;;
52031;SDS011;38044;45.148;39.604;2024-03-02T04:46:00;23.85;;;12.90;;
52031;SDS011;38044;45.148;39.604;2024-03-02T04:48:26;23.17;;;13.32;;
52031;SDS011;38044;45.148;39.604;2024-03-02T04:50:52;24.65;;;13.00;;
52031;SDS011;38044;45.148;39.604;2024-03-02T04:53:18;23.67;;;12.93;;
52031;SDS011;38044;45.148;39.604;2024-03-02T04:55:44;25.73;;;13.15;;
52031;SDS011;38044;45.148;39.604;2024-03-02T04:58:30;22.63;;;12.05;;
52031;SDS011;38044;45.148;39.604;2024-03-02T05:00:56;22.50;;;12.55;;
52031;SDS011;38044;45.148;39.604;2024-03-02T05:03:22;22.13;;;13.02;;
52031;SDS011;38044;45.148;39.604;2024-03-02T05:05:49;26.98;;;14.65;;
52031;SDS011;38044;45.148;39.604;2024-03-02T05:08:15;23.60;;;13.15;;
52031;SDS011;38044;45.148;39.604;2024-03-02T05:10:42;26.38;;;14.50;;
52031;SDS011;38044;45.148;39.604;2024-03-02T05:13:08;25.33;;;14.30;;
52031;SDS011;38044;45.148;39.604;2024-03-02T05:15:33;24.67;;;11.98;;
52031;SDS011;38044;45.148;39.604;2024-03-02T05:17:59;30.33;;;13.77;;
52031;SDS011;38044;45.148;39.604;2024-03-02T05:20:27;27.20;;;12.48;;
52031;SDS011;38044;45.148;39.604;2024-03-02T05:22:53;22.10;;;11.82;;
52031;SDS011;38044;45.148;39.604;2024-03-02T05:25:19;30.73;;;13.82;;
52031;SDS011;38044;45.148;39.604;2024-03-02T05:27:45;21.88;;;11.05;;
52031;SDS011;38044;45.148;39.604;2024-03-02T05:30:11;21.73;;;10.15;;
52031;SDS011;38044;45.148;39.604;2024-03-02T05:32:37;22.17;;;9.68;;
52031;SDS011;38044;45.148;39.604;2024-03-02T05:35:03;27.30;;;11.77;;
52031;SDS011;38044;45.148;39.604;2024-03-02T05:37:30;28.23;;;12.73;;
52031;SDS011;38044;45.148;39.604;2024-03-02T05:39:56;34.80;;;11.90;;
52031;SDS011;38044;45.148;39.604;2024-03-02T05:42:22;18.70;;;10.52;;
52031;SDS011;38044;45.148;39.604;2024-03-02T05:44:47;21.55;;;10.95;;
52031;SDS011;38044;45.148;39.604;2024-03-02T05:47:13;26.33;;;12.65;;
52031;SDS011;38044;45.148;39.604;2024-03-02T05:49:39;20.50;;;9.82;;
52031;SDS011;38044;45.148;39.604;2024-03-02T05:52:05;25.70;;;11.15;;
52031;SDS011;38044;45.148;39.604;2024-03-02T05:54:32;29.40;;;13.25;;
52031;SDS011;38044;45.148;39.604;2024-03-02T05:56:57;20.83;;;11.90;;
52031;SDS011;38044;45.148;39.604;2024-03-02T05:59:41;24.83;;;12.77;;
52031;SDS011;38044;45.148;39.604;2024-03-02T06:02:08;24.35;;;11.30;;
52031;SDS011;38044;45.148;39.604;2024-03-02T06:04:33;28.42;;;12.90;;
52031;SDS011;38044;45.148;39.604;2024-03-02T06:06:59;29.88;;;12.27;;
52031;SDS011;38044;45.148;39.604;2024-03-02T06:09:25;21.60;;;12.05;;
52031;SDS011;38044;45.148;39.604;2024-03-02T06:11:51;23.60;;;12.00;;
52031;SDS011;38044;45.148;39.604;2024-03-02T06:14:17;21.90;;;12.18;;
52031;SDS011;38044;45.148;39.604;2024-03-02T06:16:43;23.77;;;12.10;;
52031;SDS011;38044;45.148;39.604;2024-03-02T06:19:09;22.90;;;12.65;;
52031;SDS011;38044;45.148;39.604;2024-03-02T06:21:35;26.13;;;12.13;;
52031;SDS011;38044;45.148;39.604;2024-03-02T06:24:00;21.58;;;12.85;;
52031;SDS011;38044;45.148;39.604;2024-03-02T06:26:26;28.23;;;13.85;;
52031;SDS011;38044;45.148;39.604;2024-03-02T06:28:54;26.60;;;13.00;;
52031;SDS011;38044;45.148;39.604;2024-03-02T06:31:20;28.05;;;13.75;;
52031;SDS011;38044;45.148;39.604;2024-03-02T06:33:45;26.60;;;13.48;;
52031;SDS011;38044;45.148;39.604;2024-03-02T06:36:11;30.30;;;14.38;;
52031;SDS011;38044;45.148;39.604;2024-03-02T06:38:37;27.35;;;13.40;;
52031;SDS011;38044;45.148;39.604;2024-03-02T06:41:05;24.90;;;13.25;;
52031;SDS011;38044;45.148;39.604;2024-03-02T06:43:31;38.97;;;13.50;;
52031;SDS011;38044;45.148;39.604;2024-03-02T06:45:57;28.63;;;13.75;;
52031;SDS011;38044;45.148;39.604;2024-03-02T06:48:23;60.45;;;17.23;;
52031;SDS011;38044;45.148;39.604;2024-03-02T06:50:49;22.60;;;14.05;;
52031;SDS011;38044;45.148;39.604;2024-03-02T06:53:16;28.30;;;14.75;;
52031;SDS011;38044;45.148;39.604;2024-03-02T06:55:43;29.02;;;14.57;;
52031;SDS011;38044;45.148;39.604;2024-03-02T06:58:12;32.15;;;12.80;;
52031;SDS011;38044;45.148;39.604;2024-03-02T07:00:40;25.00;;;14.23;;
52031;SDS011;38044;45.148;39.604;2024-03-02T07:03:07;29.48;;;15.45;;
52031;SDS011;38044;45.148;39.604;2024-03-02T07:05:32;25.52;;;13.85;;
52031;SDS011;38044;45.148;39.604;2024-03-02T07:07:58;50.72;;;15.70;;
52031;SDS011;38044;45.148;39.604;2024-03-02T07:10:24;26.85;;;13.38;;
52031;SDS011;38044;45.148;39.604;2024-03-02T07:12:50;25.98;;;13.48;;
52031;SDS011;38044;45.148;39.604;2024-03-02T07:15:16;23.70;;;13.70;;
52031;SDS011;38044;45.148;39.604;2024-03-02T07:18:00;28.75;;;14.50;;
52031;SDS011;38044;45.148;39.604;2024-03-02T07:20:26;23.35;;;12.68;;
52031;SDS011;38044;45.148;39.604;2024-03-02T07:22:52;23.58;;;13.02;;
52031;SDS011;38044;45.148;39.604;2024-03-02T07:25:18;26.73;;;13.52;;
52031;SDS011;38044;45.148;39.604;2024-03-02T07:27:44;25.55;;;12.63;;
52031;SDS011;38044;45.148;39.604;2024-03-02T07:30:13;20.92;;;11.45;;
52031;SDS011;38044;45.148;39.604;2024-03-02T07:32:41;95.22;;;16.35;;
52031;SDS011;38044;45.148;39.604;2024-03-02T07:35:11;19.02;;;10.80;;
52031;SDS011;38044;45.148;39.604;2024-03-02T07:37:43;20.70;;;11.60;;
52031;SDS011;38044;45.148;39.604;2024-03-02T07:40:09;49.92;;;14.18;;
52031;SDS011;38044;45.148;39.604;2024-03-02T07:42:39;21.52;;;11.45;;
52031;SDS011;38044;45.148;39.604;2024-03-02T07:45:06;18.67;;;10.43;;
52031;SDS011;38044;45.148;39.604;2024-03-02T07:47:35;20.23;;;11.65;;
52031;SDS011;38044;45.148;39.604;2024-03-02T07:50:01;20.65;;;11.20;;
52031;SDS011;38044;45.148;39.604;2024-03-02T07:52:28;20.67;;;11.50;;
52031;SDS011;38044;45.148;39.604;2024-03-02T07:54:54;20.40;;;10.75;;
52031;SDS011;38044;45.148;39.604;2024-03-02T07:57:20;20.38;;;10.73;;
52031;SDS011;38044;45.148;39.604;2024-03-02T07:59:46;18.98;;;10.90;;
52031;SDS011;38044;45.148;39.604;2024-03-02T08:02:12;22.13;;;10.57;;
52031;SDS011;38044;45.148;39.604;2024-03-02T08:04:38;16.08;;;10.23;;
52031;SDS011;38044;45.148;39.604;2024-03-02T08:07:04;19.83;;;10.65;;
52031;SDS011;38044;45.148;39.604;2024-03-02T08:09:30;15.90;;;9.25;;
52031;SDS011;38044;45.148;39.604;2024-03-02T08:11:56;18.67;;;9.77;;
52031;SDS011;38044;45.148;39.604;2024-03-02T08:14:25;16.75;;;10.55;;
52031;SDS011;38044;45.148;39.604;2024-03-02T08:16:51;19.40;;;11.27;;
52031;SDS011;38044;45.148;39.604;2024-03-02T08:19:16;19.80;;;9.73;;
52031;SDS011;38044;45.148;39.604;2024-03-02T08:21:43;18.10;;;10.40;;
52031;SDS011;38044;45.148;39.604;2024-03-02T08:24:09;19.63;;;10.73;;
52031;SDS011;38044;45.148;39.604;2024-03-02T08:26:35;21.65;;;10.50;;
52031;SDS011;38044;45.148;39.604;2024-03-02T08:29:01;22.77;;;11.35;;
52031;SDS011;38044;45.148;39.604;2024-03-02T08:31:28;17.40;;;10.18;;
52031;SDS011;38044;45.148;39.604;2024-03-02T08:33:55;19.27;;;10.50;;
52031;SDS011;38044;45.148;39.604;2024-03-02T08:36:22;17.88;;;9.93;;
52031;SDS011;38044;45.148;39.604;2024-03-02T08:38:49;17.77;;;8.45;;
52031;SDS011;38044;45.148;39.604;2024-03-02T08:41:15;37.00;;;12.68;;
52031;SDS011;38044;45.148;39.604;2024-03-02T08:43:42;18.70;;;9.27;;
52031;SDS011;38044;45.148;39.604;2024-03-02T08:46:08;19.10;;;10.00;;
52031;SDS011;38044;45.148;39.604;2024-03-02T08:48:34;17.15;;;9.93;;
52031;SDS011;38044;45.148;39.604;2024-03-02T08:51:00;15.48;;;9.23;;
52031;SDS011;38044;45.148;39.604;2024-03-02T08:53:26;16.60;;;9.75;;
52031;SDS011;38044;45.148;39.604;2024-03-02T08:55:52;17.13;;;8.93;;
52031;SDS011;38044;45.148;39.604;2024-03-02T08:58:18;19.33;;;11.32;;
52031;SDS011;38044;45.148;39.604;2024-03-02T09:00:45;21.98;;;9.80;;
52031;SDS011;38044;45.148;39.604;2024-03-02T09:03:12;19.77;;;9.82;;
52031;SDS011;38044;45.148;39.604;2024-03-02T09:05:38;125.55;;;16.13;;
52031;SDS011;38044;45.148;39.604;2024-03-02T09:08:04;17.40;;;9.18;;
52031;SDS011;38044;45.148;39.604;2024-03-02T09:10:30;19.63;;;10.27;;
52031;SDS011;38044;45.148;39.604;2024-03-02T09:12:56;19.05;;;9.65;;
52031;SDS011;38044;45.148;39.604;2024-03-02T09:15:22;15.23;;;9.35;;
52031;SDS011;38044;45.148;39.604;2024-03-02T09:17:48;17.38;;;10.43;;
52031;SDS011;38044;45.148;39.604;2024-03-02T09:20:14;17.73;;;9.38;;
52031;SDS011;38044;45.148;39.604;2024-03-02T09:22:41;15.82;;;8.95;;
52031;SDS011;38044;45.148;39.604;2024-03-02T09:25:07;18.10;;;9.15;;
52031;SDS011;38044;45.148;39.604;2024-03-02T09:27:37;14.35;;;9.18;;
52031;SDS011;38044;45.148;39.604;2024-03-02T09:30:04;20.13;;;10.23;;
52031;SDS011;38044;45.148;39.604;2024-03-02T09:32:33;20.63;;;10.02;;
52031;SDS011;38044;45.148;39.604;2024-03-02T09:34:59;14.40;;;9.40;;
52031;SDS011;38044;45.148;39.604;2024-03-02T09:37:25;16.95;;;8.70;;
52031;SDS011;38044;45.148;39.604;2024-03-02T09:39:52;15.85;;;8.95;;
52031;SDS011;38044;45.148;39.604;2024-03-02T09:42:18;15.35;;;8.23;;
52031;SDS011;38044;45.148;39.604;2024-03-02T09:44:44;15.40;;;9.07;;
52031;SDS011;38044;45.148;39.604;2024-03-02T09:47:10;19.10;;;8.93;;
52031;SDS011;38044;45.148;39.604;2024-03-02T09:49:36;12.63;;;8.55;;
52031;SDS011;38044;45.148;39.604;2024-03-02T09:52:02;16.08;;;8.32;;
52031;SDS011;38044;45.148;39.604;2024-03-02T09:54:30;18.20;;;10.13;;
52031;SDS011;38044;45.148;39.604;2024-03-02T09:56:56;17.33;;;9.02;;
52031;SDS011;38044;45.148;39.604;2024-03-02T09:59:22;23.80;;;10.65;;
52031;SDS011;38044;45.148;39.604;2024-03-02T10:02:00;15.30;;;8.50;;
52031;SDS011;38044;45.148;39.604;2024-03-02T10:04:28;13.27;;;9.00;;
52031;SDS011;38044;45.148;39.604;2024-03-02T10:07:17;15.50;;;9.77;;
52031;SDS011;38044;45.148;39.604;2024-03-02T10:12:11;17.42;;;11.18;;
52031;SDS011;38044;45.148;39.604;2024-03-02T10:14:38;17.20;;;9.43;;
52031;SDS011;38044;45.148;39.604;2024-03-02T10:17:05;17.73;;;10.18;;
52031;SDS011;38044;45.148;39.604;2024-03-02T10:19:33;15.48;;;8.75;;
52031;SDS011;38044;45.148;39.604;2024-03-02T10:22:00;21.00;;;10.60;;
52031;SDS011;38044;45.148;39.604;2024-03-02T10:24:28;13.48;;;8.77;;
52031;SDS011;38044;45.148;39.604;2024-03-02T10:27:11;16.38;;;8.00;;
52031;SDS011;38044;45.148;39.604;2024-03-02T10:29:41;13.63;;;8.45;;
52031;SDS011;38044;45.148;39.604;2024-03-02T10:32:10;20.23;;;8.10;;
52031;SDS011;38044;45.148;39.604;2024-03-02T10:34:37;12.48;;;8.00;;
52031;SDS011;38044;45.148;39.604;2024-03-02T10:37:05;14.07;;;8.02;;
52031;SDS011;38044;45.148;39.604;2024-03-02T10:39:34;16.67;;;7.85;;
52031;SDS011;38044;45.148;39.604;2024-03-02T10:42:06;15.20;;;6.20;;
52031;SDS011;38044;45.148;39.604;2024-03-02T10:44:33;9.80;;;5.85;;
52031;SDS011;38044;45.148;39.604;2024-03-02T10:47:00;15.73;;;9.18;;
52031;SDS011;38044;45.148;39.604;2024-03-02T10:49:30;14.88;;;9.43;;
52031;SDS011;38044;45.148;39.604;2024-03-02T10:51:58;14.90;;;8.20;;
52031;SDS011;38044;45.148;39.604;2024-03-02T10:54:24;54.95;;;11.35;;
52031;SDS011;38044;45.148;39.604;2024-03-02T10:57:01;20.83;;;9.93;;
52031;SDS011;38044;45.148;39.604;2024-03-02T10:59:33;13.45;;;8.50;;
52031;SDS011;38044;45.148;39.604;2024-03-02T11:02:01;13.95;;;5.68;;
52031;SDS011;38044;45.148;39.604;2024-03-02T11:04:29;19.85;;;6.57;;
52031;SDS011;38044;45.148;39.604;2024-03-02T11:07:02;82.53;;;10.50;;
52031;SDS011;38044;45.148;39.604;2024-03-02T11:09:32;15.93;;;7.28;;
52031;SDS011;38044;45.148;39.604;2024-03-02T11:14:27;11.85;;;6.82;;
52031;SDS011;38044;45.148;39.604;2024-03-02T11:16:58;18.23;;;8.85;;
52031;SDS011;38044;45.148;39.604;2024-03-02T11:19:27;14.70;;;7.75;;
52031;SDS011;38044;45.148;39.604;2024-03-02T11:21:53;26.70;;;8.18;;
52031;SDS011;38044;45.148;39.604;2024-03-02T11:27:01;13.23;;;6.32;;
52031;SDS011;38044;45.148;39.604;2024-03-02T11:32:06;12.73;;;6.32;;
52031;SDS011;38044;45.148;39.604;2024-03-02T11:34:42;8.90;;;4.45;;
52031;SDS011;38044;45.148;39.604;2024-03-02T11:37:11;13.25;;;6.68;;
52031;SDS011;38044;45.148;39.604;2024-03-02T11:39:38;13.60;;;7.10;;
52031;SDS011;38044;45.148;39.604;2024-03-02T11:42:07;15.45;;;5.95;;
52031;SDS011;38044;45.148;39.604;2024-03-02T11:44:39;13.48;;;5.32;;
52031;SDS011;38044;45.148;39.604;2024-03-02T11:47:08;9.07;;;4.55;;
52031;SDS011;38044;45.148;39.604;2024-03-02T11:52:14;34.35;;;5.95;;
52031;SDS011;38044;45.148;39.604;2024-03-02T11:54:43;7.90;;;4.63;;
52031;SDS011;38044;45.148;39.604;2024-03-02T11:57:20;9.13;;;5.57;;
52031;SDS011;38044;45.148;39.604;2024-03-02T11:59:48;12.57;;;6.32;;
52031;SDS011;38044;45.148;39.604;2024-03-02T12:02:19;13.32;;;6.53;;
52031;SDS011;38044;45.148;39.604;2024-03-02T12:04:46;11.45;;;5.05;;
52031;SDS011;38044;45.148;39.604;2024-03-02T12:07:20;9.27;;;4.30;;
52031;SDS011;38044;45.148;39.604;2024-03-02T12:09:47;11.07;;;4.55;;
52031;SDS011;38044;45.148;39.604;2024-03-02T12:12:13;7.70;;;4.25;;
52031;SDS011;38044;45.148;39.604;2024-03-02T12:14:52;16.90;;;5.97;;
52031;SDS011;38044;45.148;39.604;2024-03-02T12:17:20;7.72;;;4.38;;
52031;SDS011;38044;45.148;39.604;2024-03-02T12:19:47;16.52;;;4.43;;
52031;SDS011;38044;45.148;39.604;2024-03-02T12:22:14;12.75;;;4.45;;
52031;SDS011;38044;45.148;39.604;2024-03-02T12:24:41;13.05;;;5.18;;
52031;SDS011;38044;45.148;39.604;2024-03-02T12:27:10;9.65;;;4.03;;
52031;SDS011;38044;45.148;39.604;2024-03-02T12:29:38;22.17;;;5.05;;
52031;SDS011;38044;45.148;39.604;2024-03-02T12:32:05;74.10;;;8.98;;
52031;SDS011;38044;45.148;39.604;2024-03-02T12:34:31;47.40;;;6.07;;
52031;SDS011;38044;45.148;39.604;2024-03-02T12:36:57;9.10;;;3.33;;
52031;SDS011;38044;45.148;39.604;2024-03-02T12:39:23;7.85;;;3.00;;
52031;SDS011;38044;45.148;39.604;2024-03-02T12:41:49;11.13;;;3.97;;
52031;SDS011;38044;45.148;39.604;2024-03-02T12:44:18;7.30;;;3.53;;
52031;SDS011;38044;45.148;39.604;2024-03-02T12:46:45;9.38;;;3.70;;
52031;SDS011;38044;45.148;39.604;2024-03-02T12:49:13;10.50;;;4.10;;
52031;SDS011;38044;45.148;39.604;2024-03-02T12:51:41;11.15;;;4.82;;
52031;SDS011;38044;45.148;39.604;2024-03-02T12:54:08;11.25;;;4.43;;
52031;SDS011;38044;45.148;39.604;2024-03-02T12:56:37;10.35;;;5.00;;
52031;SDS011;38044;45.148;39.604;2024-03-02T12:59:04;10.40;;;4.60;;
52031;SDS011;38044;45.148;39.604;2024-03-02T13:01:30;9.05;;;5.43;;
52031;SDS011;38044;45.148;39.604;2024-03-02T13:03:57;10.95;;;5.15;;
52031;SDS011;38044;45.148;39.604;2024-03-02T13:06:24;18.63;;;6.43;;
52031;SDS011;38044;45.148;39.604;2024-03-02T13:08:53;18.23;;;6.63;;
52031;SDS011;38044;45.148;39.604;2024-03-02T13:11:20;11.20;;;6.93;;
52031;SDS011;38044;45.148;39.604;2024-03-02T13:13:48;14.50;;;6.80;;
52031;SDS011;38044;45.148;39.604;2024-03-02T13:16:15;15.45;;;6.70;;
52031;SDS011;38044;45.148;39.604;2024-03-02T13:18:42;11.85;;;5.88;;
52031;SDS011;38044;45.148;39.604;2024-03-02T13:21:09;17.27;;;8.38;;
52031;SDS011;38044;45.148;39.604;2024-03-02T13:23:35;16.80;;;7.07;;
52031;SDS011;38044;45.148;39.604;2024-03-02T13:26:01;15.15;;;6.55;;
52031;SDS011;38044;45.148;39.604;2024-03-02T13:28:28;16.60;;;6.60;;
52031;SDS011;38044;45.148;39.604;2024-03-02T13:30:53;16.02;;;6.82;;
52031;SDS011;38044;45.148;39.604;2024-03-02T13:33:20;13.52;;;5.95;;
52031;SDS011;38044;45.148;39.604;2024-03-02T13:35:49;15.50;;;6.43;;
52031;SDS011;38044;45.148;39.604;2024-03-02T13:38:19;18.02;;;7.60;;
52031;SDS011;38044;45.148;39.604;2024-03-02T13:40:45;15.77;;;6.38;;
52031;SDS011;38044;45.148;39.604;2024-03-02T13:43:16;16.58;;;6.65;;
52031;SDS011;38044;45.148;39.604;2024-03-02T13:45:44;38.08;;;8.77;;
52031;SDS011;38044;45.148;39.604;2024-03-02T13:48:10;17.13;;;7.13;;
52031;SDS011;38044;45.148;39.604;2024-03-02T13:50:36;19.02;;;6.90;;
52031;SDS011;38044;45.148;39.604;2024-03-02T13:53:02;15.88;;;7.30;;
52031;SDS011;38044;45.148;39.604;2024-03-02T13:55:28;13.25;;;7.47;;
52031;SDS011;38044;45.148;39.604;2024-03-02T13:57:54;17.13;;;9.65;;
52031;SDS011;38044;45.148;39.604;2024-03-02T14:00:20;19.50;;;8.15;;
52031;SDS011;38044;45.148;39.604;2024-03-02T14:02:46;22.73;;;9.45;;
52031;SDS011;38044;45.148;39.604;2024-03-02T14:05:14;26.42;;;11.05;;
52031;SDS011;38044;45.148;39.604;2024-03-02T14:07:41;20.10;;;8.95;;
52031;SDS011;38044;45.148;39.604;2024-03-02T14:10:07;21.73;;;11.07;;
52031;SDS011;38044;45.148;39.604;2024-03-02T14:12:33;27.70;;;12.43;;
52031;SDS011;38044;45.148;39.604;2024-03-02T14:14:59;30.58;;;14.77;;
52031;SDS011;38044;45.148;39.604;2024-03-02T14:17:27;30.88;;;14.75;;
52031;SDS011;38044;45.148;39.604;2024-03-02T14:19:54;28.77;;;15.25;;
52031;SDS011;38044;45.148;39.604;2024-03-02T14:22:20;24.33;;;14.45;;
52031;SDS011;38044;45.148;39.604;2024-03-02T14:24:46;40.30;;;17.45;;
52031;SDS011;38044;45.148;39.604;2024-03-02T14:27:13;30.42;;;17.67;;
52031;SDS011;38044;45.148;39.604;2024-03-02T14:29:39;28.67;;;17.10;;
52031;SDS011;38044;45.148;39.604;2024-03-02T14:32:06;31.45;;;18.10;;
52031;SDS011;38044;45.148;39.604;2024-03-02T14:34:32;40.42;;;19.55;;
52031;SDS011;38044;45.148;39.604;2024-03-02T14:36:58;30.70;;;17.73;;